Time;durP1;ratioP1;P1;durP2;ratioP2;P2;SDS_P1;SDS_P2;PMS_P1;PMS_P2;Temp;Humidity;BMP_temperature;BMP_pressure;BME280_temperature;BME280_humidity;BME280_pressure;Samples;Min_cycle;Max_cycle;Signal;HPM_P1;HPM_P2
2021/06/23 00:01:11;;;;;;;528.22;384.17;;;;;;;;;;5079899;28;20060;-80
2021/06/23 00:03:37;;;;;;;522.13;380.48;;;;;;;;;;5079514;28;20101;-79
2021/06/23 00:06:03;;;;;;;524.08;387.05;;;;;;;;;;5078506;28;20042;-80
2021/06/23 00:08:29;;;;;;;522.78;383.13;;;;;;;;;;5077447;28;20020;-81
2021/06/23 00:10:55;;;;;;;517.45;379.60;;;;;;;;;;5076711;28;20031;-81
2021/06/23 00:13:21;;;;;;;518.45;384.40;;;;;;;;;;5080679;28;20024;-79
2021/06/23 00:15:48;;;;;;;518.60;384.23;;;;;;;;;;5075901;28;20016;-80
2021/06/23 00:18:14;;;;;;;515.83;378.27;;;;;;;;;;5076238;28;20403;-80
2021/06/23 00:20:40;;;;;;;513.30;374.33;;;;;;;;;;5082576;28;20024;-83
2021/06/23 00:23:06;;;;;;;515.67;373.55;;;;;;;;;;5078322;28;20094;-79
2021/06/23 00:25:33;;;;;;;514.72;381.45;;;;;;;;;;5076860;28;20055;-82
2021/06/23 00:27:59;;;;;;;515.17;376.13;;;;;;;;;;5080130;28;20016;-77
2021/06/23 00:30:25;;;;;;;516.35;383.25;;;;;;;;;;5080187;28;20016;-77
2021/06/23 00:32:52;;;;;;;519.28;377.23;;;;;;;;;;5073546;28;20484;-79
2021/06/23 00:35:18;;;;;;;517.20;377.85;;;;;;;;;;5075019;28;20021;-78
2021/06/23 00:37:44;;;;;;;527.95;380.38;;;;;;;;;;5083234;28;20350;-77
2021/06/23 00:40:11;;;;;;;522.20;380.23;;;;;;;;;;5080897;28;20036;-80
2021/06/23 00:42:38;;;;;;;524.30;381.40;;;;;;;;;;5074891;28;20051;-78
2021/06/23 00:45:08;;;;;;;537.97;389.40;;;;;;;;;;5074610;28;20020;-80
2021/06/23 00:47:34;;;;;;;524.25;382.67;;;;;;;;;;5077235;28;20043;-81
2021/06/23 00:50:04;;;;;;;528.00;386.20;;;;;;;;;;5074438;28;20023;-80
2021/06/23 00:52:30;;;;;;;;;;;;;;;;;;5087542;28;20165;-81
2021/06/23 00:54:56;;;;;;;526.08;373.80;;;;;;;;;;5078271;28;19990;-79
2021/06/23 00:57:22;;;;;;;531.75;385.65;;;;;;;;;;5076298;28;20050;-81
2021/06/23 00:59:50;;;;;;;524.70;386.17;;;;;;;;;;5070101;28;20040;-81
2021/06/23 01:02:17;;;;;;;521.25;376.08;;;;;;;;;;5087263;28;20039;-82
2021/06/23 01:04:43;;;;;;;524.42;386.52;;;;;;;;;;5076032;28;20104;-80
2021/06/23 01:07:09;;;;;;;524.55;384.30;;;;;;;;;;5075693;28;20023;-80
2021/06/23 01:09:35;;;;;;;514.70;376.33;;;;;;;;;;5075431;28;20035;-79
2021/06/23 01:12:05;;;;;;;517.42;382.30;;;;;;;;;;5078132;28;20438;-78
2021/06/23 01:14:36;;;;;;;515.17;369.40;;;;;;;;;;5067368;28;20564;-80
2021/06/23 01:17:03;;;;;;;519.17;373.60;;;;;;;;;;5078169;28;20046;-79
2021/06/23 01:19:31;;;;;;;518.47;375.27;;;;;;;;;;5079529;28;20254;-79
2021/06/23 01:21:57;;;;;;;523.95;382.35;;;;;;;;;;5077058;28;20044;-79
2021/06/23 01:24:23;;;;;;;516.35;373.33;;;;;;;;;;5066265;28;20039;-81
2021/06/23 01:26:49;;;;;;;519.17;372.48;;;;;;;;;;5063550;28;20105;-81
2021/06/23 01:29:15;;;;;;;518.67;367.33;;;;;;;;;;5064190;28;20093;-78
2021/06/23 01:31:41;;;;;;;519.50;377.95;;;;;;;;;;5077753;28;20017;-81
2021/06/23 01:34:07;;;;;;;522.83;380.70;;;;;;;;;;5089849;28;20027;-78
2021/06/23 01:36:34;;;;;;;516.83;376.83;;;;;;;;;;5078896;28;20012;-81
2021/06/23 01:39:00;;;;;;;518.33;372.73;;;;;;;;;;5077428;28;20024;-79
2021/06/23 01:41:26;;;;;;;517.97;373.10;;;;;;;;;;5077876;28;20032;-80
2021/06/23 01:43:52;;;;;;;514.20;361.00;;;;;;;;;;5080253;28;20334;-81
2021/06/23 01:46:18;;;;;;;513.47;365.10;;;;;;;;;;5078390;28;20085;-81
2021/06/23 01:48:44;;;;;;;514.05;372.20;;;;;;;;;;5077060;28;20466;-79
2021/06/23 01:51:10;;;;;;;513.78;370.52;;;;;;;;;;5079272;28;20058;-80
2021/06/23 01:53:37;;;;;;;515.38;372.67;;;;;;;;;;5075342;28;20418;-81
2021/06/23 01:56:06;;;;;;;515.40;367.20;;;;;;;;;;5081724;28;20023;-81
2021/06/23 01:58:37;;;;;;;514.05;365.88;;;;;;;;;;5083769;28;20400;-79
2021/06/23 02:01:11;;;;;;;510.92;365.13;;;;;;;;;;5076832;28;20480;-80
2021/06/23 02:03:47;;;;;;;512.70;361.48;;;;;;;;;;5076764;28;20019;-81
2021/06/23 02:06:36;;;;;;;515.20;365.90;;;;;;;;;;5067869;28;20020;-79
2021/06/23 02:09:21;;;;;;;511.40;360.90;;;;;;;;;;5072547;28;20040;-79
2021/06/23 02:11:48;;;;;;;512.25;366.10;;;;;;;;;;5080846;28;20081;-81
2021/06/23 02:14:44;;;;;;;510.75;366.30;;;;;;;;;;5063524;28;20032;-82
2021/06/23 02:17:11;;;;;;;514.92;363.38;;;;;;;;;;5061260;28;20035;-81
2021/06/23 02:19:44;;;;;;;511.25;362.98;;;;;;;;;;5078930;28;20043;-80
2021/06/23 02:22:12;;;;;;;509.52;360.95;;;;;;;;;;5078538;28;20040;-80
2021/06/23 02:24:38;;;;;;;510.15;365.27;;;;;;;;;;5073876;28;20054;-79
2021/06/23 02:27:04;;;;;;;512.42;368.75;;;;;;;;;;5077505;28;20330;-79
2021/06/23 02:29:31;;;;;;;517.40;371.23;;;;;;;;;;5073685;28;20028;-79
2021/06/23 02:31:57;;;;;;;517.75;371.92;;;;;;;;;;5079415;28;20050;-79
2021/06/23 02:34:23;;;;;;;511.15;368.65;;;;;;;;;;5078850;28;20119;-79
2021/06/23 02:36:49;;;;;;;516.83;370.00;;;;;;;;;;5077096;28;20028;-79
2021/06/23 02:39:16;;;;;;;514.13;375.75;;;;;;;;;;5073725;28;20099;-80
2021/06/23 02:41:42;;;;;;;517.28;375.35;;;;;;;;;;5079913;28;20055;-79
2021/06/23 02:44:08;;;;;;;517.13;373.48;;;;;;;;;;5070802;28;20055;-80
2021/06/23 02:46:34;;;;;;;512.53;370.23;;;;;;;;;;5069499;28;20023;-79
2021/06/23 02:49:01;;;;;;;513.90;371.50;;;;;;;;;;5075733;28;20434;-79
2021/06/23 02:51:27;;;;;;;513.28;366.00;;;;;;;;;;5077700;28;20039;-80
2021/06/23 02:53:54;;;;;;;517.08;366.52;;;;;;;;;;5075008;28;20486;-80
2021/06/23 02:56:20;;;;;;;512.65;370.05;;;;;;;;;;5075197;28;20020;-81
2021/06/23 02:58:47;;;;;;;514.50;372.20;;;;;;;;;;5075471;28;20083;-80
2021/06/23 03:01:13;;;;;;;516.42;373.15;;;;;;;;;;5075902;28;20032;-79
2021/06/23 03:03:40;;;;;;;514.30;371.38;;;;;;;;;;5081836;28;20024;-80
2021/06/23 03:06:06;;;;;;;509.73;366.25;;;;;;;;;;5079666;28;20330;-80
2021/06/23 03:08:32;;;;;;;515.92;373.08;;;;;;;;;;5075114;28;20020;-79
2021/06/23 03:10:58;;;;;;;514.00;367.00;;;;;;;;;;5077481;28;20013;-80
2021/06/23 03:13:24;;;;;;;514.22;368.88;;;;;;;;;;5074583;28;20653;-80
2021/06/23 03:15:50;;;;;;;512.13;363.63;;;;;;;;;;5076578;28;20020;-79
2021/06/23 03:18:17;;;;;;;514.63;366.35;;;;;;;;;;5081886;28;20100;-80
2021/06/23 03:20:49;;;;;;;510.27;368.55;;;;;;;;;;5077613;28;20362;-80
2021/06/23 03:23:16;;;;;;;510.45;365.00;;;;;;;;;;5084328;28;20067;-80
2021/06/23 03:25:45;;;;;;;510.77;370.77;;;;;;;;;;5080295;28;20550;-81
2021/06/23 03:28:11;;;;;;;507.73;366.27;;;;;;;;;;5103543;28;20050;-81
2021/06/23 03:30:38;;;;;;;509.88;364.83;;;;;;;;;;5081001;28;20024;-80
2021/06/23 03:33:04;;;;;;;509.63;366.30;;;;;;;;;;5079797;28;20028;-80
2021/06/23 03:35:31;;;;;;;507.83;367.30;;;;;;;;;;5073688;28;20035;-80
2021/06/23 03:37:57;;;;;;;506.75;369.30;;;;;;;;;;5084379;28;20024;-80
2021/06/23 03:40:23;;;;;;;503.27;363.50;;;;;;;;;;5080400;28;20169;-80
2021/06/23 03:42:49;;;;;;;505.17;362.98;;;;;;;;;;5077823;28;20110;-79
2021/06/23 03:45:16;;;;;;;503.70;358.60;;;;;;;;;;5078872;28;20023;-78
2021/06/23 03:47:42;;;;;;;506.73;369.08;;;;;;;;;;5084446;28;20112;-80
2021/06/23 03:50:08;;;;;;;504.73;363.45;;;;;;;;;;5079531;28;20031;-81
2021/06/23 03:52:34;;;;;;;504.15;361.98;;;;;;;;;;5092920;28;20303;-80
2021/06/23 03:55:00;;;;;;;508.50;357.25;;;;;;;;;;5077551;28;20023;-80
2021/06/23 03:57:27;;;;;;;503.88;363.17;;;;;;;;;;5074978;28;20131;-81
2021/06/23 03:59:53;;;;;;;508.80;370.48;;;;;;;;;;5077169;28;20038;-80
2021/06/23 04:02:19;;;;;;;520.20;374.90;;;;;;;;;;5082664;28;20111;-79
2021/06/23 04:04:46;;;;;;;505.02;361.40;;;;;;;;;;5073190;28;20430;-79
2021/06/23 04:07:15;;;;;;;509.90;365.38;;;;;;;;;;5077175;28;20064;-83
2021/06/23 04:09:42;;;;;;;515.33;367.52;;;;;;;;;;5078159;28;20016;-80
2021/06/23 04:12:08;;;;;;;513.00;366.00;;;;;;;;;;5080546;28;20105;-80
2021/06/23 04:14:34;;;;;;;516.92;368.38;;;;;;;;;;5076421;28;20028;-79
2021/06/23 04:17:00;;;;;;;517.75;367.98;;;;;;;;;;5072892;28;20576;-81
2021/06/23 04:19:26;;;;;;;520.65;373.67;;;;;;;;;;5082684;28;20024;-80
2021/06/23 04:21:52;;;;;;;519.80;376.98;;;;;;;;;;5078319;28;20094;-81
2021/06/23 04:24:18;;;;;;;520.65;377.60;;;;;;;;;;5089471;28;20044;-81
2021/06/23 04:26:44;;;;;;;517.60;372.33;;;;;;;;;;5078619;28;20052;-80
2021/06/23 04:29:11;;;;;;;516.42;364.05;;;;;;;;;;5081385;28;20085;-80
2021/06/23 04:31:37;;;;;;;517.17;371.45;;;;;;;;;;5079233;28;20028;-80
2021/06/23 04:34:03;;;;;;;515.63;366.48;;;;;;;;;;5085226;28;20047;-79
2021/06/23 04:36:29;;;;;;;516.60;380.20;;;;;;;;;;5080088;28;20103;-80
2021/06/23 04:38:55;;;;;;;517.90;374.25;;;;;;;;;;5078963;28;20024;-82
2021/06/23 04:41:21;;;;;;;516.10;372.42;;;;;;;;;;5090744;28;20044;-81
2021/06/23 04:43:47;;;;;;;516.50;375.30;;;;;;;;;;5078199;28;20261;-83
2021/06/23 04:46:13;;;;;;;519.80;373.98;;;;;;;;;;5067946;28;20023;-79
2021/06/23 04:48:39;;;;;;;516.30;377.20;;;;;;;;;;5083778;28;20024;-81
2021/06/23 04:51:05;;;;;;;522.20;384.90;;;;;;;;;;5068709;28;20477;-79
2021/06/23 04:53:31;;;;;;;519.50;382.33;;;;;;;;;;5074051;28;20019;-79
2021/06/23 04:55:58;;;;;;;522.33;386.23;;;;;;;;;;5077732;28;20027;-81
2021/06/23 04:58:24;;;;;;;527.67;384.85;;;;;;;;;;5079734;28;20016;-82
2021/06/23 05:00:51;;;;;;;523.15;385.08;;;;;;;;;;5077880;28;20478;-81
2021/06/23 05:03:17;;;;;;;518.72;363.73;;;;;;;;;;5075461;28;20051;-81
2021/06/23 05:05:43;;;;;;;528.58;384.58;;;;;;;;;;5089549;28;20153;-80
2021/06/23 05:08:09;;;;;;;533.45;398.83;;;;;;;;;;5081158;28;20122;-81
2021/06/23 05:10:35;;;;;;;520.20;380.02;;;;;;;;;;5089028;28;20028;-80
2021/06/23 05:13:01;;;;;;;511.83;374.67;;;;;;;;;;5079151;28;20115;-79
2021/06/23 05:15:28;;;;;;;509.88;368.45;;;;;;;;;;5078980;28;20111;-81
2021/06/23 05:17:54;;;;;;;514.08;380.80;;;;;;;;;;5063786;28;20020;-80
2021/06/23 05:20:21;;;;;;;511.75;378.58;;;;;;;;;;5083175;28;20573;-81
2021/06/23 05:22:49;;;;;;;516.03;385.52;;;;;;;;;;5075583;28;20039;-82
2021/06/23 05:25:15;;;;;;;510.40;380.63;;;;;;;;;;5079910;28;20016;-82
2021/06/23 05:27:41;;;;;;;507.88;375.33;;;;;;;;;;5080790;28;20039;-81
2021/06/23 05:30:07;;;;;;;506.42;378.70;;;;;;;;;;5080276;28;20032;-81
2021/06/23 05:32:33;;;;;;;510.30;377.70;;;;;;;;;;5076180;28;20115;-80
2021/06/23 05:34:59;;;;;;;501.63;373.33;;;;;;;;;;5079481;28;20103;-80
2021/06/23 05:37:25;;;;;;;501.38;372.20;;;;;;;;;;5078311;28;20028;-81
2021/06/23 05:39:51;;;;;;;502.60;378.05;;;;;;;;;;5078944;28;20436;-81
2021/06/23 05:42:17;;;;;;;504.70;380.67;;;;;;;;;;5076899;28;20024;-80
2021/06/23 05:44:43;;;;;;;500.63;373.50;;;;;;;;;;5075565;28;20585;-80
2021/06/23 05:47:09;;;;;;;507.02;386.40;;;;;;;;;;5090113;28;20032;-80
2021/06/23 05:49:35;;;;;;;504.00;374.52;;;;;;;;;;5075573;28;20020;-79
2021/06/23 05:52:03;;;;;;;508.95;382.33;;;;;;;;;;5076489;28;20031;-79
2021/06/23 05:54:29;;;;;;;502.30;375.52;;;;;;;;;;5080139;28;20020;-79
2021/06/23 05:56:55;;;;;;;503.45;372.95;;;;;;;;;;5073772;28;20456;-80
2021/06/23 05:59:21;;;;;;;504.00;373.52;;;;;;;;;;5078737;28;20493;-81
2021/06/23 06:01:47;;;;;;;507.50;373.77;;;;;;;;;;5076560;28;20434;-81
2021/06/23 06:04:13;;;;;;;515.35;388.02;;;;;;;;;;5082222;28;20023;-79
2021/06/23 06:06:39;;;;;;;513.90;382.48;;;;;;;;;;5076389;28;20031;-81
2021/06/23 06:09:05;;;;;;;519.03;391.38;;;;;;;;;;5077713;28;20023;-80
2021/06/23 06:11:31;;;;;;;541.58;405.23;;;;;;;;;;5089532;28;20115;-81
2021/06/23 06:13:57;;;;;;;542.70;406.42;;;;;;;;;;5078136;28;20066;-80
2021/06/23 06:16:23;;;;;;;642.63;502.75;;;;;;;;;;5082244;28;20035;-80
2021/06/23 06:18:49;;;;;;;754.25;614.42;;;;;;;;;;5065818;28;20423;-81
2021/06/23 06:21:15;;;;;;;647.35;501.77;;;;;;;;;;5075240;28;20028;-81
2021/06/23 06:23:41;;;;;;;809.38;689.33;;;;;;;;;;5063900;28;20036;-79
2021/06/23 06:26:07;;;;;;;809.53;455.17;;;;;;;;;;5079040;28;20023;-79
2021/06/23 06:28:34;;;;;;;654.58;505.98;;;;;;;;;;5074470;28;20619;-80
2021/06/23 06:31:00;;;;;;;664.10;515.75;;;;;;;;;;5071870;28;20149;-80
2021/06/23 06:33:26;;;;;;;672.25;523.08;;;;;;;;;;5072857;28;20501;-81
2021/06/23 06:35:52;;;;;;;705.10;557.78;;;;;;;;;;5064662;28;20126;-81
2021/06/23 06:38:18;;;;;;;682.58;535.10;;;;;;;;;;5077305;28;20115;-80
2021/06/23 06:40:44;;;;;;;667.58;520.85;;;;;;;;;;5080004;28;20043;-80
2021/06/23 06:43:11;;;;;;;673.13;528.10;;;;;;;;;;5075727;28;20035;-80
2021/06/23 06:45:37;;;;;;;676.08;521.25;;;;;;;;;;5081114;28;20051;-81
2021/06/23 06:48:03;;;;;;;721.83;577.88;;;;;;;;;;5087630;28;20116;-78
2021/06/23 06:50:29;;;;;;;689.10;544.67;;;;;;;;;;5078361;28;20047;-80
2021/06/23 06:52:55;;;;;;;695.85;539.28;;;;;;;;;;5078247;28;20168;-78
2021/06/23 06:55:21;;;;;;;782.17;669.78;;;;;;;;;;5072230;28;20051;-79
2021/06/23 06:57:48;;;;;;;784.70;677.42;;;;;;;;;;5070931;28;20522;-79
2021/06/23 07:00:14;;;;;;;762.03;633.58;;;;;;;;;;5070197;28;20032;-80
2021/06/23 07:02:40;;;;;;;825.10;734.00;;;;;;;;;;5076320;28;20031;-80
2021/06/23 07:05:07;;;;;;;739.17;609.95;;;;;;;;;;5067426;28;20028;-78
2021/06/23 07:07:32;;;;;;;736.80;616.45;;;;;;;;;;5084152;28;20425;-79
2021/06/23 07:09:58;;;;;;;740.92;620.72;;;;;;;;;;5077303;28;20013;-79
2021/06/23 07:12:24;;;;;;;761.95;649.28;;;;;;;;;;5075681;28;20020;-78
2021/06/23 07:14:50;;;;;;;724.03;601.60;;;;;;;;;;5078127;28;20055;-79
2021/06/23 07:17:16;;;;;;;707.55;588.08;;;;;;;;;;5076431;28;20040;-79
2021/06/23 07:19:42;;;;;;;688.13;559.75;;;;;;;;;;5072755;28;20024;-79
2021/06/23 07:22:09;;;;;;;717.60;588.58;;;;;;;;;;5074311;28;20063;-78
2021/06/23 07:24:35;;;;;;;737.13;625.53;;;;;;;;;;5072640;28;20020;-78
2021/06/23 07:27:01;;;;;;;676.88;552.75;;;;;;;;;;5069085;28;20032;-78
2021/06/23 07:29:28;;;;;;;769.58;664.20;;;;;;;;;;5071882;28;20487;-78
2021/06/23 07:32:09;;;;;;;743.10;621.05;;;;;;;;;;5071834;28;20032;-79
2021/06/23 07:37:11;;;;;;;683.50;547.45;;;;;;;;;;5089399;28;20039;-80
2021/06/23 07:39:38;;;;;;;707.65;579.00;;;;;;;;;;5075316;28;20032;-78
2021/06/23 07:42:05;;;;;;;651.78;523.58;;;;;;;;;;5071233;28;20016;-78
2021/06/23 07:44:38;;;;;;;789.83;652.03;;;;;;;;;;5062969;28;20409;-79
2021/06/23 07:47:11;;;;;;;584.05;451.98;;;;;;;;;;5076909;28;20340;-78
2021/06/23 07:49:40;;;;;;;591.10;473.63;;;;;;;;;;5073887;28;20038;-77
2021/06/23 07:52:31;;;;;;;610.07;491.70;;;;;;;;;;5075851;28;20020;-77
2021/06/23 07:55:08;;;;;;;692.72;571.70;;;;;;;;;;5067545;28;20324;-81
2021/06/23 08:11:19;;;;;;;715.75;597.58;;;;;;;;;;5086687;28;20055;-80
2021/06/23 08:13:45;;;;;;;638.17;513.70;;;;;;;;;;5070370;28;20055;-79
2021/06/23 08:16:12;;;;;;;862.58;770.20;;;;;;;;;;5078135;28;20020;-79
2021/06/23 08:18:38;;;;;;;587.45;468.02;;;;;;;;;;5074897;28;20099;-81
2021/06/23 08:21:04;;;;;;;805.35;717.45;;;;;;;;;;5074538;28;20068;-81
2021/06/23 08:23:30;;;;;;;585.72;467.45;;;;;;;;;;5071738;28;20121;-81
2021/06/23 08:25:56;;;;;;;851.90;760.80;;;;;;;;;;5070612;28;20633;-82
2021/06/23 08:28:23;;;;;;;677.65;569.13;;;;;;;;;;5068877;28;20022;-81
2021/06/23 08:30:49;;;;;;;588.10;475.88;;;;;;;;;;5070294;28;20012;-82
2021/06/23 08:33:15;;;;;;;813.30;726.22;;;;;;;;;;5063313;28;20031;-81
2021/06/23 08:35:41;;;;;;;658.40;542.00;;;;;;;;;;5065385;28;20477;-82
2021/06/23 08:38:07;;;;;;;629.47;534.08;;;;;;;;;;5061584;28;20016;-82
2021/06/23 08:40:34;;;;;;;625.85;534.47;;;;;;;;;;5060435;28;20028;-80
2021/06/23 08:43:00;;;;;;;813.92;711.25;;;;;;;;;;5064821;28;20427;-82
2021/06/23 08:45:26;;;;;;;784.88;692.17;;;;;;;;;;5066733;28;20021;-83
2021/06/23 08:47:57;;;;;;;810.55;719.42;;;;;;;;;;5081622;28;20016;-81
2021/06/23 08:50:23;;;;;;;785.20;698.88;;;;;;;;;;5069394;28;20602;-83
2021/06/23 08:52:50;;;;;;;679.83;605.75;;;;;;;;;;5068295;28;20031;-82
2021/06/23 08:55:19;;;;;;;807.88;613.10;;;;;;;;;;5065001;28;20048;-82
2021/06/23 08:57:46;;;;;;;802.33;691.08;;;;;;;;;;5066329;28;20170;-82
2021/06/23 09:00:12;;;;;;;789.35;689.88;;;;;;;;;;5067378;28;20035;-82
2021/06/23 09:02:38;;;;;;;799.38;666.30;;;;;;;;;;5079106;28;20071;-83
2021/06/23 09:05:07;;;;;;;801.35;702.50;;;;;;;;;;5059492;28;20694;-87
2021/06/23 09:07:37;;;;;;;803.35;637.42;;;;;;;;;;5056410;28;20031;-82
2021/06/23 09:10:06;;;;;;;810.28;685.30;;;;;;;;;;5058375;28;20033;-83
2021/06/23 09:12:32;;;;;;;797.28;621.92;;;;;;;;;;5057904;28;20177;-83
2021/06/23 09:15:00;;;;;;;792.92;670.42;;;;;;;;;;5058686;28;20030;-82
2021/06/23 09:17:28;;;;;;;784.30;659.90;;;;;;;;;;5067146;28;20127;-82
2021/06/23 09:20:14;;;;;;;771.22;535.28;;;;;;;;;;5059555;28;20119;-82
2021/06/23 09:22:48;;;;;;;792.70;598.08;;;;;;;;;;5056001;28;20090;-82
2021/06/23 09:25:14;;;;;;;789.85;638.03;;;;;;;;;;5058953;28;20044;-82
2021/06/23 09:28:02;;;;;;;797.53;628.20;;;;;;;;;;5057920;28;20029;-83
2021/06/23 09:30:37;;;;;;;801.28;617.15;;;;;;;;;;5064273;28;20073;-82
2021/06/23 09:33:19;;;;;;;794.58;567.67;;;;;;;;;;5058119;28;20025;-82
2021/06/23 09:35:49;;;;;;;792.25;565.38;;;;;;;;;;5059746;28;20043;-81
2021/06/23 09:38:38;;;;;;;786.92;542.92;;;;;;;;;;5058392;28;20109;-81
2021/06/23 09:41:23;;;;;;;781.72;529.53;;;;;;;;;;5060522;28;20143;-81
2021/06/23 09:43:51;;;;;;;796.08;534.95;;;;;;;;;;5064450;28;20044;-84
2021/06/23 09:46:25;;;;;;;792.72;546.72;;;;;;;;;;5063865;28;20037;-83
2021/06/23 09:49:11;;;;;;;796.15;537.30;;;;;;;;;;5063789;28;20024;-81
2021/06/23 09:52:01;;;;;;;804.40;717.53;;;;;;;;;;5065778;28;20029;-81
2021/06/23 09:54:30;;;;;;;1116.90;997.78;;;;;;;;;;5063617;28;20040;-83
2021/06/23 09:57:17;;;;;;;1030.90;928.60;;;;;;;;;;5047901;28;20115;-82
2021/06/23 09:59:50;;;;;;;808.67;585.17;;;;;;;;;;5055622;28;20036;-82
2021/06/23 10:02:30;;;;;;;830.85;630.58;;;;;;;;;;5057290;28;20435;-82
2021/06/23 10:04:57;;;;;;;816.45;565.03;;;;;;;;;;5057509;28;20044;-81
2021/06/23 10:10:44;;;;;;;820.00;632.80;;;;;;;;;;4970807;28;20041;-80
2021/06/23 10:13:10;;;;;;;;;;;;;;;;;;4986806;28;20544;-79
2021/06/23 10:15:38;;;;;;;810.10;579.42;;;;;;;;;;4972329;28;19921;-80
2021/06/23 10:18:10;;;;;;;810.72;579.63;;;;;;;;;;4974514;28;20073;-85
2021/06/23 10:20:37;;;;;;;675.55;602.17;;;;;;;;;;4990361;28;20429;-79
2021/06/23 10:23:05;;;;;;;813.40;591.15;;;;;;;;;;4969979;28;20061;-80
2021/06/23 10:25:31;;;;;;;798.08;574.95;;;;;;;;;;4973938;28;20502;-80
2021/06/23 10:27:59;;;;;;;581.90;514.88;;;;;;;;;;4964227;28;20129;-75
2021/06/23 10:30:46;;;;;;;591.47;501.67;;;;;;;;;;4965746;28;20053;-79
2021/06/23 10:33:15;;;;;;;611.17;544.08;;;;;;;;;;4981452;28;20446;-78
2021/06/23 10:35:41;;;;;;;783.35;591.35;;;;;;;;;;4965545;28;20057;-78
2021/06/23 10:38:09;;;;;;;925.65;833.88;;;;;;;;;;4959656;28;20145;-80
2021/06/23 10:40:37;;;;;;;596.83;531.05;;;;;;;;;;4967045;28;20092;-74
2021/06/23 10:43:16;;;;;;;794.58;626.17;;;;;;;;;;4968238;28;20047;-77
2021/06/23 10:45:56;;;;;;;804.92;685.40;;;;;;;;;;4970193;28;20509;-77
2021/06/23 10:48:23;;;;;;;799.80;666.47;;;;;;;;;;4965776;28;20122;-78
2021/06/23 10:50:55;;;;;;;813.85;653.65;;;;;;;;;;4961334;28;20070;-78
2021/06/23 10:53:31;;;;;;;1142.70;999.90;;;;;;;;;;4961706;28;20053;-77
2021/06/23 10:55:59;;;;;;;1140.85;999.90;;;;;;;;;;4960465;28;20050;-78
2021/06/23 10:58:27;;;;;;;1009.55;918.75;;;;;;;;;;4966833;28;20745;-79
2021/06/23 11:01:23;;;;;;;1066.85;970.70;;;;;;;;;;4965264;28;20055;-79
2021/06/23 11:04:09;;;;;;;1000.60;908.83;;;;;;;;;;4966545;28;20026;-76
2021/06/23 11:06:46;;;;;;;837.78;606.22;;;;;;;;;;4969012;28;20081;-79
2021/06/23 11:09:26;;;;;;;1151.03;999.90;;;;;;;;;;4963630;28;20054;-78
2021/06/23 11:12:08;;;;;;;1122.10;994.97;;;;;;;;;;4963196;28;20037;-78
2021/06/23 11:14:35;;;;;;;1296.18;999.90;;;;;;;;;;4956915;28;20038;-80
2021/06/23 11:17:27;;;;;;;1083.35;975.50;;;;;;;;;;4963883;28;20039;-79
2021/06/23 11:19:53;;;;;;;1053.57;946.78;;;;;;;;;;4965747;28;20134;-77
2021/06/23 11:22:22;;;;;;;896.90;744.53;;;;;;;;;;4951074;28;20115;-76
2021/06/23 11:25:08;;;;;;;524.08;466.35;;;;;;;;;;4950648;28;20086;-78
2021/06/23 11:27:34;;;;;;;545.83;486.55;;;;;;;;;;4955192;28;20031;-80
2021/06/23 11:30:19;;;;;;;540.70;481.45;;;;;;;;;;4955707;28;20051;-77
2021/06/23 11:33:20;;;;;;;544.22;484.38;;;;;;;;;;4944230;28;20096;-78
2021/06/23 11:35:46;;;;;;;526.67;463.23;;;;;;;;;;4954174;28;20034;-77
2021/06/23 11:38:12;;;;;;;526.78;468.45;;;;;;;;;;4973649;28;20034;-76
2021/06/23 11:40:38;;;;;;;526.70;468.15;;;;;;;;;;4976379;28;20074;-80
2021/06/23 11:43:04;;;;;;;526.70;467.20;;;;;;;;;;4968128;28;20078;-78
2021/06/23 11:45:40;;;;;;;526.03;467.88;;;;;;;;;;4969231;28;20050;-78
2021/06/23 11:48:06;;;;;;;527.88;469.52;;;;;;;;;;4958770;28;20030;-77
2021/06/23 11:50:32;;;;;;;526.58;468.48;;;;;;;;;;4961452;28;20078;-79
2021/06/23 11:52:58;;;;;;;520.08;462.17;;;;;;;;;;4951606;28;20023;-78
2021/06/23 11:55:25;;;;;;;524.13;466.38;;;;;;;;;;4964413;28;20403;-78
2021/06/23 11:57:58;;;;;;;521.35;463.63;;;;;;;;;;4969894;28;20019;-79
2021/06/23 12:00:25;;;;;;;518.83;458.13;;;;;;;;;;4970659;28;20092;-77
2021/06/23 12:02:52;;;;;;;515.15;447.55;;;;;;;;;;4968380;28;20062;-79
2021/06/23 12:05:19;;;;;;;517.78;446.33;;;;;;;;;;4965488;28;20685;-76
2021/06/23 12:07:46;;;;;;;521.90;456.60;;;;;;;;;;4964170;28;20498;-78
2021/06/23 12:10:13;;;;;;;519.47;455.42;;;;;;;;;;4959330;28;20097;-79
2021/06/23 12:12:39;;;;;;;517.50;450.02;;;;;;;;;;4929812;29;20035;-76
2021/06/23 12:15:10;;;;;;;515.60;446.30;;;;;;;;;;4942145;29;20059;-77
2021/06/23 12:17:37;;;;;;;516.85;447.90;;;;;;;;;;4946462;28;20031;-78
2021/06/23 12:20:31;;;;;;;514.65;445.95;;;;;;;;;;4947619;29;20805;-77
2021/06/23 12:23:01;;;;;;;516.67;449.85;;;;;;;;;;4951740;28;20016;-78
2021/06/23 12:25:28;;;;;;;;;;;;;;;;;;4945656;28;20059;-77
2021/06/23 12:27:54;;;;;;;512.83;434.30;;;;;;;;;;4967034;28;19906;-79
2021/06/23 12:30:21;;;;;;;513.67;442.30;;;;;;;;;;4948251;28;20086;-78
2021/06/23 12:32:50;;;;;;;514.10;444.42;;;;;;;;;;4951858;28;20876;-81
2021/06/23 12:35:16;;;;;;;517.15;452.65;;;;;;;;;;4949830;28;20078;-76
2021/06/23 12:37:42;;;;;;;515.22;445.95;;;;;;;;;;4952632;28;20035;-75
2021/06/23 12:40:08;;;;;;;516.30;449.67;;;;;;;;;;4952288;29;20051;-77
2021/06/23 12:42:34;;;;;;;518.20;455.05;;;;;;;;;;4952421;28;20023;-83
2021/06/23 12:45:09;;;;;;;518.17;457.42;;;;;;;;;;4942105;29;20054;-81
2021/06/23 12:47:36;;;;;;;519.80;455.27;;;;;;;;;;4948645;29;20868;-77
2021/06/23 12:50:02;;;;;;;520.15;462.40;;;;;;;;;;4955667;28;20061;-83
2021/06/23 12:52:28;;;;;;;517.55;455.77;;;;;;;;;;4947797;29;20483;-79
2021/06/23 12:54:54;;;;;;;514.30;456.67;;;;;;;;;;4954309;29;20047;-77
2021/06/23 13:00:24;;;;;;;514.17;455.73;;;;;;;;;;4952838;28;20674;-79
2021/06/23 13:02:50;;;;;;;512.22;452.85;;;;;;;;;;4955782;29;20531;-79
2021/06/23 13:05:16;;;;;;;510.92;452.42;;;;;;;;;;4953357;28;20399;-80
2021/06/23 13:07:44;;;;;;;513.05;455.10;;;;;;;;;;4962030;28;20063;-76
2021/06/23 13:10:10;;;;;;;511.48;453.65;;;;;;;;;;4961650;28;20398;-78
2021/06/23 13:12:36;;;;;;;512.88;454.92;;;;;;;;;;4976370;28;20042;-78
2021/06/23 13:15:02;;;;;;;514.92;457.92;;;;;;;;;;4993912;28;20046;-79
2021/06/23 13:17:29;;;;;;;512.97;454.02;;;;;;;;;;4970824;28;20064;-76
2021/06/23 13:19:58;;;;;;;508.98;447.42;;;;;;;;;;4975648;28;20054;-80
2021/06/23 13:22:24;;;;;;;514.42;456.42;;;;;;;;;;4975581;28;20109;-79
2021/06/23 13:24:50;;;;;;;513.78;456.80;;;;;;;;;;4991579;28;20046;-77
2021/06/23 13:27:16;;;;;;;511.85;453.42;;;;;;;;;;4994485;28;20026;-79
2021/06/23 13:29:42;;;;;;;512.72;451.48;;;;;;;;;;4993518;28;20030;-80
2021/06/23 13:32:12;;;;;;;509.73;448.42;;;;;;;;;;4992069;28;20474;-76
2021/06/23 13:34:39;;;;;;;509.55;447.33;;;;;;;;;;4968638;28;20034;-79
2021/06/23 13:37:05;;;;;;;508.92;446.58;;;;;;;;;;4993860;28;20445;-79
2021/06/23 13:39:31;;;;;;;507.27;445.33;;;;;;;;;;4975905;28;20093;-78
2021/06/23 13:41:57;;;;;;;509.33;447.00;;;;;;;;;;4992735;28;20029;-79
2021/06/23 13:44:28;;;;;;;507.48;442.25;;;;;;;;;;4975630;28;20048;-78
2021/06/23 13:46:55;;;;;;;508.15;442.25;;;;;;;;;;4975778;28;20053;-78
2021/06/23 13:49:21;;;;;;;510.10;447.08;;;;;;;;;;4973717;28;20577;-80
2021/06/23 13:51:47;;;;;;;508.52;445.00;;;;;;;;;;4974638;28;20026;-77
2021/06/23 13:54:13;;;;;;;505.52;440.02;;;;;;;;;;4974094;28;20071;-78
2021/06/23 13:56:57;;;;;;;507.88;443.77;;;;;;;;;;4994008;28;20022;-77
2021/06/23 13:59:23;;;;;;;508.15;440.33;;;;;;;;;;4993468;28;20082;-80
2021/06/23 14:01:49;;;;;;;505.30;437.35;;;;;;;;;;4984150;28;20072;-79
2021/06/23 14:04:15;;;;;;;508.10;442.92;;;;;;;;;;4976175;28;20097;-80
2021/06/23 14:06:41;;;;;;;506.90;439.27;;;;;;;;;;4972071;28;20113;-78
2021/06/23 14:09:22;;;;;;;505.95;437.60;;;;;;;;;;4974295;28;20046;-76
2021/06/23 14:11:48;;;;;;;506.05;439.10;;;;;;;;;;4956065;28;20794;-77
2021/06/23 14:14:14;;;;;;;508.80;438.17;;;;;;;;;;4964022;28;20058;-81
2021/06/23 14:16:40;;;;;;;505.42;439.90;;;;;;;;;;4966403;28;20033;-81
2021/06/23 14:19:07;;;;;;;505.48;441.08;;;;;;;;;;4949492;28;20129;-79
2021/06/23 14:21:52;;;;;;;504.77;436.77;;;;;;;;;;4972146;28;20030;-77
2021/06/23 14:24:18;;;;;;;505.80;437.98;;;;;;;;;;4972530;28;20090;-80